Time;durP1;ratioP1;P1;durP2;ratioP2;P2;SDS_P1;SDS_P2;PMS_P1;PMS_P2;Temp;Humidity;BMP_temperature;BMP_pressure;BME280_temperature;BME280_humidity;BME280_pressure;Samples;Min_cycle;Max_cycle;Signal;HPM_P1;HPM_P2
2022/04/20 04:32:37;;;;;;;;;56.33;44.67;;;;;11.85;61.22;100784.00;5116115;27;45701;-73
2022/04/20 04:35:03;;;;;;;;;57.00;45.67;;;;;11.84;61.63;100782.28;5118910;27;45393;-73
2022/04/20 04:37:29;;;;;;;;;56.33;46.33;;;;;11.89;61.74;100780.25;5119400;27;45403;-74
2022/04/20 04:39:54;;;;;;;;;61.67;49.00;;;;;11.89;61.52;100784.75;5118460;27;45449;-72
2022/04/20 04:42:19;;;;;;;;;55.75;47.25;;;;;11.97;61.49;100785.22;5117915;27;46214;-74
2022/04/20 04:44:45;;;;;;;;;56.33;47.33;;;;;12.03;61.65;100791.16;5117287;27;45393;-71
2022/04/20 04:49:55;;;;;;;;;61.67;50.67;;;;;12.01;61.20;100784.09;5117587;27;45409;-73
2022/04/20 04:52:20;;;;;;;;;60.00;47.33;;;;;11.98;61.41;100795.03;5116699;27;45329;-72
2022/04/20 04:54:46;;;;;;;;;61.00;46.67;;;;;11.95;61.67;100792.47;5106266;27;45351;-71
2022/04/20 04:57:12;;;;;;;;;60.00;50.67;;;;;11.95;61.33;100797.84;5096712;27;45406;-72
2022/04/20 04:59:38;;;;;;;;;62.67;48.00;;;;;11.90;61.45;100791.84;5096265;27;45448;-72
2022/04/20 05:02:05;;;;;;;;;62.67;50.33;;;;;11.83;61.82;100791.28;5096442;27;45386;-74
2022/04/20 05:04:30;;;;;;;;;61.00;51.00;;;;;11.82;61.43;100800.31;5096624;27;45354;-72
2022/04/20 05:06:56;;;;;;;;;61.67;49.67;;;;;11.83;61.53;100801.16;5096427;27;45556;-72
2022/04/20 05:09:22;;;;;;;;;63.33;51.00;;;;;11.78;62.18;100800.53;5077989;27;45565;-74
2022/04/20 05:11:48;;;;;;;;;58.67;45.33;;;;;11.83;61.48;100799.34;5096475;27;45354;-73
2022/04/20 05:14:14;;;;;;;;;62.33;45.33;;;;;11.87;61.81;100800.06;5095949;27;45430;-73
2022/04/20 05:16:42;;;;;;;;;60.33;46.67;;;;;11.77;61.56;100783.53;5097949;27;45327;-73
2022/04/20 05:19:08;;;;;;;;;61.00;49.33;;;;;11.82;61.50;100789.56;5099059;27;45674;-75
2022/04/20 05:21:34;;;;;;;;;55.67;46.67;;;;;11.80;61.41;100780.69;5077693;27;46544;-74
2022/04/20 05:23:59;;;;;;;;;62.33;50.33;;;;;11.92;61.40;100798.88;5096289;27;45214;-74
2022/04/20 05:26:25;;;;;;;;;59.00;46.00;;;;;11.94;61.39;100798.81;5095506;27;45410;-71
2022/04/20 05:28:52;;;;;;;;;66.33;50.00;;;;;11.94;60.78;100796.13;5107192;27;45460;-73
2022/04/20 05:31:18;;;;;;;;;63.67;50.33;;;;;11.90;61.47;100802.59;5110990;27;45498;-72
2022/04/20 05:33:43;;;;;;;;;64.00;49.33;;;;;11.96;61.42;100810.34;5094753;27;45345;-71
2022/04/20 05:36:08;;;;;;;;;65.00;53.33;;;;;11.87;61.48;100808.13;5095889;27;45417;-71
2022/04/20 05:44:01;;;;;;;;;63.00;50.33;;;;;11.53;62.02;100799.03;5094340;27;45993;-72
2022/04/20 05:46:27;;;;;;;;;63.67;53.33;;;;;11.46;62.50;100802.94;5095746;27;45696;-72
2022/04/20 05:48:52;;;;;;;;;61.00;50.00;;;;;11.51;62.63;100811.63;5076831;27;47024;-72
2022/04/20 05:51:18;;;;;;;;;66.33;51.33;;;;;11.57;62.55;100797.06;5095935;27;45305;-75
2022/04/20 05:53:43;;;;;;;;;61.33;50.33;;;;;11.69;61.88;100797.31;5101420;27;45458;-72
2022/04/20 05:56:11;;;;;;;;;65.67;50.33;;;;;11.88;61.52;100812.56;5116425;27;45978;-70
2022/04/20 05:58:36;;;;;;;;;68.67;50.00;;;;;11.94;61.00;100801.47;5116051;27;45425;-70
2022/04/20 06:01:02;;;;;;;;;63.33;50.00;;;;;12.09;60.88;100806.94;5115250;27;45440;-72
2022/04/20 06:03:27;;;;;;;;;61.33;48.33;;;;;12.15;60.91;100792.34;5115005;27;45357;-71
2022/04/20 06:05:53;;;;;;;;;64.67;51.33;;;;;12.28;59.89;100792.56;5115114;27;45396;-72
2022/04/20 06:08:30;;;;;;;;;64.67;49.67;;;;;12.35;59.86;100792.16;5115265;27;45413;-69
2022/04/20 06:10:57;;;;;;;;;60.67;50.33;;;;;12.33;59.59;100777.94;5116423;27;45463;-71
2022/04/20 06:13:28;;;;;;;;;58.67;48.67;;;;;12.50;59.14;100799.41;5116219;27;45358;-70
2022/04/20 06:15:54;;;;;;;;;64.00;47.67;;;;;12.43;58.75;100791.75;5116063;27;45400;-70
2022/04/20 06:18:21;;;;;;;;;59.00;47.33;;;;;12.48;59.64;100806.72;5115942;27;45542;-72
2022/04/20 06:20:47;;;;;;;;;59.00;48.00;;;;;12.51;59.12;100798.47;5116101;27;46090;-71
2022/04/20 06:23:12;;;;;;;;;64.00;49.00;;;;;12.46;59.58;100794.28;5115396;27;45334;-73
2022/04/20 06:25:38;;;;;;;;;64.00;51.00;;;;;12.52;59.58;100796.66;5114551;27;45320;-73
2022/04/20 06:28:04;;;;;;;;;63.67;50.00;;;;;12.47;59.51;100791.53;5115730;27;45317;-74
2022/04/20 06:30:29;;;;;;;;;65.67;51.00;;;;;12.51;59.60;100790.41;5115300;27;46052;-73
2022/04/20 06:32:54;;;;;;;;;61.33;50.33;;;;;12.58;58.72;100779.34;5097981;27;45527;-73
2022/04/20 06:35:20;;;;;;;;;58.00;45.50;;;;;12.73;58.50;100782.06;5095716;27;45413;-71
2022/04/20 06:37:45;;;;;;;;;61.00;49.00;;;;;12.84;58.01;100784.19;5095372;27;45487;-73
2022/04/20 06:40:11;;;;;;;;;60.33;46.33;;;;;12.94;57.47;100785.38;5095205;27;46363;-71
2022/04/20 06:42:36;;;;;;;;;62.67;47.00;;;;;13.05;57.33;100796.44;5095050;27;45227;-72
2022/04/20 06:45:02;;;;;;;;;62.67;49.33;;;;;13.06;57.30;100783.84;5095175;27;45404;-71
2022/04/20 06:47:29;;;;;;;;;55.00;44.67;;;;;13.20;56.72;100801.00;5095124;27;45273;-73
2022/04/20 06:49:55;;;;;;;;;64.67;48.00;;;;;13.22;56.54;100788.34;5095199;27;45279;-73
2022/04/20 07:00:33;;;;;;;;;59.25;48.25;;;;;13.51;55.48;100773.22;5115487;27;45426;-72
2022/04/20 07:03:00;;;;;;;;;68.00;52.25;;;;;13.68;54.79;100796.50;5115297;27;45223;-72
2022/04/20 07:05:25;;;;;;;;;61.50;48.50;;;;;13.73;54.61;100802.47;5115545;27;45627;-73
2022/04/20 07:07:51;;;;;;;;;56.25;46.25;;;;;13.74;54.19;100792.56;5115417;27;45630;-72
2022/04/20 07:10:16;;;;;;;;;63.50;48.25;;;;;13.83;54.65;100790.22;5115398;27;46029;-72
2022/04/20 07:12:41;;;;;;;;;63.00;48.50;;;;;13.79;54.38;100772.47;5115108;27;45361;-71
2022/04/20 07:15:07;;;;;;;;;57.75;45.75;;;;;13.99;53.54;100791.03;5114917;27;45363;-73
2022/04/20 07:17:32;;;;;;;;;51.00;44.25;;;;;14.06;53.71;100796.06;5118915;27;45867;-73
2022/04/20 07:19:58;;;;;;;;;58.75;46.00;;;;;14.05;53.87;100789.78;5118012;27;46017;-72
2022/04/20 07:22:24;;;;;;;;;54.00;43.00;;;;;14.16;53.50;100798.13;5119014;27;45436;-71
2022/04/20 07:24:49;;;;;;;;;52.50;44.00;;;;;14.22;52.75;100792.34;5118701;27;45271;-73
2022/04/20 07:27:15;;;;;;;;;55.75;45.50;;;;;14.27;52.19;100789.38;5117382;27;45386;-73
2022/04/20 07:29:40;;;;;;;;;54.75;42.00;;;;;14.31;51.85;100794.50;5118096;27;45513;-72
2022/04/20 07:32:06;;;;;;;;;56.50;43.50;;;;;14.36;52.59;100795.09;5107788;27;45395;-72
2022/04/20 07:34:31;;;;;;;;;61.75;43.25;;;;;14.44;51.90;100802.75;5098199;27;45246;-72
2022/04/20 07:36:56;;;;;;;;;54.00;44.50;;;;;14.50;51.52;100807.75;5098117;27;45332;-71
2022/04/20 07:39:22;;;;;;;;;52.50;42.75;;;;;14.54;51.17;100801.25;5097393;27;46175;-71
2022/04/20 07:41:47;;;;;;;;;52.50;42.25;;;;;14.62;51.09;100801.63;5089738;27;45354;-72
2022/04/20 07:44:12;;;;;;;;;49.50;41.50;;;;;14.64;49.67;100799.69;5118225;27;45326;-72
2022/04/20 07:46:38;;;;;;;;;49.25;40.75;;;;;14.65;49.63;100793.31;5118403;27;45559;-72
2022/04/20 07:50:18;;;;;;;;;44.75;37.50;;;;;14.68;49.72;100787.75;5118383;27;45269;-71
2022/04/20 07:51:48;;;;;;;;;45.75;38.00;;;;;14.80;48.87;100801.47;5118432;27;45243;-72
2022/04/20 07:54:14;;;;;;;;;46.25;38.25;;;;;14.86;49.30;100809.16;5112485;27;45430;-73
2022/04/20 07:56:39;;;;;;;;;46.50;37.00;;;;;14.92;48.86;100801.53;5097855;27;45347;-73
2022/04/20 07:59:04;;;;;;;;;46.25;38.25;;;;;14.94;48.99;100798.75;5097052;27;46780;-70
2022/04/20 08:01:30;;;;;;;;;50.00;40.75;;;;;15.05;47.98;100804.34;5097646;27;45222;-72
2022/04/20 08:03:55;;;;;;;;;43.50;36.00;;;;;15.11;48.01;100809.34;5097753;27;45516;-72
2022/04/20 08:06:20;;;;;;;;;39.75;33.25;;;;;15.18;47.15;100805.28;5097543;27;45558;-71
2022/04/20 08:08:46;;;;;;;;;41.00;33.25;;;;;15.26;47.13;100791.28;5097255;27;45425;-72
2022/04/20 08:11:12;;;;;;;;;45.75;33.25;;;;;15.33;46.26;100792.63;5097581;27;45307;-72
2022/04/20 08:16:21;;;;;;;;;42.25;34.00;;;;;15.46;45.79;100791.75;5097163;27;45331;-72
2022/04/20 08:18:46;;;;;;;;;33.50;31.00;;;;;15.55;45.99;100795.72;5097307;27;45338;-73
2022/04/20 08:21:12;;;;;;;;;38.25;33.25;;;;;15.48;45.44;100778.97;5097359;27;45361;-72
2022/04/20 08:23:37;;;;;;;;;33.75;31.25;;;;;15.60;44.89;100785.44;5097461;27;45536;-72
2022/04/20 08:26:03;;;;;;;;;40.00;30.00;;;;;15.72;45.13;100795.47;5097144;27;45433;-73
2022/04/20 08:28:30;;;;;;;;;36.00;32.00;;;;;15.73;45.13;100793.63;5096072;27;45997;-72
2022/04/20 08:30:56;;;;;;;;;33.25;29.25;;;;;15.82;45.62;100795.72;5091989;27;45236;-72
2022/04/20 08:33:21;;;;;;;;;38.50;31.00;;;;;15.95;44.63;100801.16;5095980;27;45393;-72
2022/04/20 08:35:47;;;;;;;;;39.75;33.00;;;;;16.00;44.53;100794.47;5092079;27;46841;-74
2022/04/20 08:38:13;;;;;;;;;37.00;33.75;;;;;16.10;44.48;100797.41;5117221;27;46105;-72
2022/04/20 08:40:39;;;;;;;;;38.00;31.25;;;;;16.07;43.74;100790.41;5117551;27;45392;-72
2022/04/20 08:43:07;;;;;;;;;38.50;31.00;;;;;16.24;44.44;100803.63;5117736;27;45482;-73
2022/04/20 08:45:37;;;;;;;;;30.00;28.25;;;;;16.32;43.79;100802.25;5117341;27;45312;-73
2022/04/20 08:48:03;;;;;;;;;32.50;31.50;;;;;16.32;43.82;100799.53;5098844;27;46316;-71
2022/04/20 08:50:29;;;;;;;;;36.25;30.50;;;;;16.44;43.61;100795.97;5097511;27;45651;-74
2022/04/20 08:52:58;;;;;;;;;36.25;32.50;;;;;16.52;43.03;100804.41;5117851;27;45479;-74
2022/04/20 08:55:24;;;;;;;;;32.00;31.25;;;;;16.58;42.60;100807.59;5100746;27;45904;-74
2022/04/20 08:57:52;;;;;;;;;33.25;28.25;;;;;16.59;42.77;100798.47;5096736;27;46160;-74
2022/04/20 09:00:26;;;;;;;;;38.25;34.50;;;;;16.73;42.62;100797.53;5096686;27;45326;-72
2022/04/20 09:03:00;;;;;;;;;28.75;28.50;;;;;16.78;42.26;100799.91;5097150;27;45206;-73
2022/04/20 09:05:28;;;;;;;;;37.50;31.50;;;;;16.80;41.98;100806.97;5096405;27;45253;-71
2022/04/20 09:07:53;;;;;;;;;34.00;28.00;;;;;16.83;41.80;100805.88;5096834;27;45358;-74
2022/04/20 09:10:19;;;;;;;;;34.75;30.50;;;;;16.83;41.79;100789.66;5096500;27;45246;-73
2022/04/20 09:12:46;;;;;;;;;31.50;28.00;;;;;16.91;41.86;100795.38;5096802;27;45244;-72
2022/04/20 09:15:27;;;;;;;;;32.00;30.25;;;;;16.89;41.73;100790.06;5096216;27;45312;-72
2022/04/20 09:17:52;;;;;;;;;30.00;30.00;;;;;16.98;41.65;100793.97;5096579;27;45473;-73
2022/04/20 09:20:19;;;;;;;;;29.50;26.75;;;;;17.01;41.97;100793.75;5096584;27;45304;-73
2022/04/20 09:23:04;;;;;;;;;28.00;25.50;;;;;17.08;42.51;100792.31;5096572;27;45398;-72
2022/04/20 09:25:32;;;;;;;;;28.25;25.75;;;;;17.13;41.68;100792.84;5096327;27;45316;-71
2022/04/20 09:27:58;;;;;;;;;37.00;30.00;;;;;17.18;41.39;100790.66;5099624;27;45497;-72
2022/04/20 09:30:24;;;;;;;;;31.25;28.50;;;;;17.22;41.19;100780.47;5116760;27;45318;-71
2022/04/20 09:32:49;;;;;;;;;35.00;30.25;;;;;17.25;41.03;100774.84;5100144;27;45443;-72
2022/04/20 09:35:18;;;;;;;;;34.00;29.25;;;;;17.33;41.14;100783.28;5096219;27;45354;-73
2022/04/20 09:37:45;;;;;;;;;28.25;27.50;;;;;17.40;41.23;100790.84;5096057;27;45979;-73
2022/04/20 09:40:14;;;;;;;;;30.25;25.00;;;;;17.45;41.19;100776.94;5096228;27;45543;-72
2022/04/20 09:43:01;;;;;;;;;33.50;27.25;;;;;17.50;40.67;100771.19;5095936;27;45342;-72
2022/04/20 09:45:26;;;;;;;;;27.25;25.50;;;;;17.56;40.10;100770.72;5095900;27;45403;-73
2022/04/20 09:50:36;;;;;;;;;22.00;21.50;;;;;17.62;40.64;100768.44;5095875;27;45188;-74
2022/04/20 09:53:07;;;;;;;;;24.25;19.50;;;;;17.65;41.04;100756.53;5096042;27;45264;-73
2022/04/20 09:55:34;;;;;;;;;22.75;21.75;;;;;17.71;39.69;100767.75;5116413;27;45391;-72
2022/04/20 09:58:19;;;;;;;;;22.75;19.25;;;;;17.75;39.88;100769.28;5116430;27;46446;-72
2022/04/20 10:00:49;;;;;;;;;25.00;22.25;;;;;17.72;39.53;100757.78;5116703;27;45339;-72
2022/04/20 10:03:29;;;;;;;;;19.25;18.50;;;;;17.78;40.11;100758.19;5116823;27;45444;-72
2022/04/20 10:05:56;;;;;;;;;21.75;18.75;;;;;17.86;39.65;100760.34;5116503;27;45498;-73
2022/04/20 10:08:23;;;;;;;;;26.00;22.25;;;;;17.86;39.20;100763.06;5116189;27;45784;-72
2022/04/20 10:10:50;;;;;;;;;20.00;18.75;;;;;17.93;39.56;100761.59;5116126;27;45261;-72
2022/04/20 10:13:16;;;;;;;;;26.75;22.25;;;;;17.98;39.88;100761.22;5115630;27;45394;-72
2022/04/20 10:18:29;;;;;;;;;23.75;21.50;;;;;17.98;39.44;100753.09;5116395;27;45522;-73
2022/04/20 10:20:57;;;;;;;;;22.25;20.50;;;;;18.09;39.72;100754.00;5116371;27;45355;-72
2022/04/20 10:23:23;;;;;;;;;20.00;18.75;;;;;18.11;39.68;100743.91;5116255;27;45442;-74
2022/04/20 10:25:51;;;;;;;;;17.25;16.75;;;;;18.12;39.43;100752.88;5116208;27;45491;-72
2022/04/20 10:28:36;;;;;;;;;19.25;18.25;;;;;18.13;39.51;100743.78;5115499;27;46706;-74
2022/04/20 10:31:28;;;;;;;;;18.75;17.50;;;;;18.14;39.49;100742.78;5114355;27;45306;-74
2022/04/20 10:33:54;;;;;;;;;17.75;16.00;;;;;18.17;39.13;100742.56;5095726;27;45346;-74
2022/04/20 10:36:31;;;;;;;;;18.25;17.00;;;;;18.14;39.46;100732.81;5095161;27;45504;-74
2022/04/20 10:39:26;;;;;;;;;17.25;15.50;;;;;18.24;40.17;100742.94;5095248;27;45468;-74
2022/04/20 10:42:16;;;;;;;;;16.25;14.75;;;;;18.31;40.01;100738.75;5095407;27;45341;-74
2022/04/20 10:45:01;;;;;;;;;20.25;14.75;;;;;18.38;40.35;100740.88;5084434;27;45391;-72
2022/04/20 10:47:49;;;;;;;;;20.50;17.75;;;;;18.45;39.86;100736.72;5115761;27;45625;-73
2022/04/20 10:50:19;;;;;;;;;12.50;12.00;;;;;18.46;40.31;100730.28;5114216;27;45332;-74
2022/04/20 10:52:58;;;;;;;;;17.50;17.25;;;;;18.52;40.33;100724.38;5115847;27;45351;-73
2022/04/20 10:55:46;;;;;;;;;16.75;16.75;;;;;18.59;39.93;100716.66;5100177;27;45829;-74
2022/04/20 10:58:20;;;;;;;;;16.25;12.75;;;;;18.66;39.58;100722.44;5085175;27;45517;-72
2022/04/20 11:00:45;;;;;;;;;15.00;14.25;;;;;18.70;39.81;100704.94;5094799;27;45357;-72
2022/04/20 11:03:12;;;;;;;;;9.25;9.25;;;;;18.74;39.43;100707.25;5095126;27;45338;-71
2022/04/20 11:05:53;;;;;;;;;13.00;13.00;;;;;18.85;39.40;100699.13;5095356;27;45511;-72
2022/04/20 11:08:20;;;;;;;;;20.50;12.75;;;;;18.99;39.18;100708.84;5095198;27;45507;-73
2022/04/20 11:19:13;;;;;;;;;10.00;10.00;;;;;19.38;37.98;100693.84;5095683;27;45330;-74
2022/04/20 11:21:53;;;;;;;;;9.50;9.00;;;;;19.57;38.20;100704.06;5095598;27;46041;-74
2022/04/20 11:24:29;;;;;;;;;9.00;9.00;;;;;19.74;38.32;100702.63;5096436;27;45398;-74
2022/04/20 11:26:55;;;;;;;;;10.50;9.50;;;;;19.80;37.36;100686.69;5103785;27;45195;-75
2022/04/20 11:29:25;;;;;;;;;10.25;9.25;;;;;20.00;37.12;100701.28;5115965;27;45569;-75
2022/04/20 11:32:02;;;;;;;;;11.75;10.00;;;;;20.16;36.85;100692.69;5108254;27;45915;-74
2022/04/20 11:34:31;;;;;;;;;7.75;7.75;;;;;20.29;35.80;100680.59;5096647;27;45323;-75
2022/04/20 11:37:00;;;;;;;;;9.75;8.00;;;;;20.38;35.22;100677.09;5096574;27;45324;-75
2022/04/20 11:39:28;;;;;;;;;9.50;8.00;;;;;20.60;35.13;100688.78;5095312;27;45975;-74
2022/04/20 11:42:04;;;;;;;;;7.00;7.00;;;;;20.74;34.15;100689.31;5096540;27;46143;-75
2022/04/20 11:44:39;;;;;;;;;5.00;5.00;;;;;20.88;33.56;100679.91;5095979;27;45429;-74
2022/04/20 11:47:09;;;;;;;;;7.25;5.75;;;;;21.00;33.79;100667.03;5095357;27;45271;-75
2022/04/20 11:49:49;;;;;;;;;10.00;6.50;;;;;21.27;33.48;100675.44;5095468;27;45327;-75
2022/04/20 11:52:17;;;;;;;;;6.50;5.00;;;;;21.48;32.76;100678.06;5076991;27;46628;-75
2022/04/20 11:54:46;;;;;;;;;6.75;6.00;;;;;21.71;32.26;100668.59;5110268;27;45498;-76
2022/04/20 11:57:13;;;;;;;;;6.50;6.25;;;;;21.87;31.78;100670.75;5116835;27;45307;-76
2022/04/20 11:59:46;;;;;;;;;5.25;4.50;;;;;22.05;31.71;100662.72;5115431;27;45534;-75
2022/04/20 12:02:15;;;;;;;;;4.25;4.25;;;;;22.20;29.97;100656.63;5115841;27;45529;-75
2022/04/20 12:04:43;;;;;;;;;5.50;4.00;;;;;22.39;29.12;100669.41;5119586;27;45360;-75
2022/04/20 12:07:08;;;;;;;;;2.50;2.50;;;;;22.58;28.63;100663.00;5119576;27;45345;-75
2022/04/20 12:09:36;;;;;;;;;4.50;3.00;;;;;22.74;27.89;100663.28;5119969;27;45471;-74
2022/04/20 12:12:05;;;;;;;;;4.00;4.00;;;;;22.87;28.06;100668.41;5119729;27;45402;-75
2022/04/20 12:14:38;;;;;;;;;3.75;3.00;;;;;22.87;28.03;100649.28;5119739;27;45267;-74
2022/04/20 12:17:22;;;;;;;;;3.75;3.50;;;;;23.01;27.48;100657.81;5121745;27;45467;-76
2022/04/20 12:19:50;;;;;;;;;3.75;3.75;;;;;23.28;27.68;100662.41;5120450;27;45165;-76
2022/04/20 12:22:21;;;;;;;;;4.50;3.50;;;;;23.56;26.96;100660.50;5120923;27;45987;-75
2022/04/20 12:24:48;;;;;;;;;5.00;4.00;;;;;23.85;26.19;100652.06;5120386;27;45448;-76
2022/04/20 12:27:19;;;;;;;;;7.00;3.50;;;;;24.05;25.41;100652.72;5119673;27;45234;-76
2022/04/20 12:29:53;;;;;;;;;3.75;3.75;;;;;24.22;24.99;100649.13;5118918;27;47479;-76
2022/04/20 12:32:32;;;;;;;;;3.00;3.00;;;;;24.49;24.51;100650.84;5108125;27;45309;-75
2022/04/20 12:35:01;;;;;;;;;3.75;3.75;;;;;24.80;25.04;100651.19;5106847;27;45238;-75
2022/04/20 12:37:29;;;;;;;;;5.50;3.00;;;;;25.08;24.34;100655.47;5119995;27;45429;-75
2022/04/20 12:39:56;;;;;;;;;3.50;3.50;;;;;25.38;24.05;100650.38;5119524;27;45444;-75
2022/04/20 12:42:23;;;;;;;;;2.25;2.25;;;;;25.53;22.96;100649.53;5118982;27;45554;-76
2022/04/20 12:44:53;;;;;;;;;3.75;3.25;;;;;25.62;22.46;100643.06;5121905;27;45359;-75
2022/04/20 12:47:22;;;;;;;;;4.75;4.00;;;;;25.81;23.05;100641.03;5119140;27;45638;-75
2022/04/20 12:49:52;;;;;;;;;3.75;3.75;;;;;25.97;22.20;100633.66;5119718;27;45491;-76
2022/04/20 12:52:22;;;;;;;;;3.50;3.50;;;;;25.98;22.16;100629.88;5119465;27;46271;-75
2022/04/20 12:54:56;;;;;;;;;2.75;2.75;;;;;26.04;21.52;100622.81;5109112;27;45294;-75
2022/04/20 13:02:58;;;;;;;;;3.25;3.25;;;;;26.20;21.64;100644.78;5098268;27;45205;-76
2022/04/20 13:05:24;;;;;;;;;4.00;4.00;;;;;26.39;21.71;100649.09;5097536;27;45391;-75
2022/04/20 13:07:50;;;;;;;;;2.75;2.75;;;;;26.53;20.94;100631.88;5098658;27;45534;-75
2022/04/20 13:10:16;;;;;;;;;4.75;3.50;;;;;26.89;20.92;100636.91;5098505;27;45503;-77
2022/04/20 13:12:49;;;;;;;;;2.00;2.00;;;;;27.61;20.25;100637.59;5079836;27;48068;-75
2022/04/20 13:15:14;;;;;;;;;2.50;2.50;;;;;28.45;20.16;100634.63;5098849;27;45489;-76
2022/04/20 13:17:40;;;;;;;;;4.50;3.00;;;;;28.93;18.46;100626.84;5091324;27;45369;-75
2022/04/20 13:20:07;;;;;;;;;3.00;2.00;;;;;28.91;19.01;100621.53;5118763;27;45712;-75
2022/04/20 13:22:32;;;;;;;;;2.75;2.75;;;;;28.66;18.58;100630.28;5119571;27;45484;-76
2022/04/20 13:27:54;;;;;;;;;2.00;2.00;;;;;28.32;18.34;100630.81;5119503;27;45308;-75
2022/04/20 13:30:20;;;;;;;;;2.50;2.50;;;;;28.95;18.59;100616.47;5120094;27;45271;-75
2022/04/20 13:32:45;;;;;;;;;1.75;1.75;;;;;29.89;17.96;100617.31;5103577;27;45349;-76
2022/04/20 13:35:11;;;;;;;;;2.75;2.75;;;;;30.66;16.81;100609.03;5098766;27;45481;-75
2022/04/20 13:37:36;;;;;;;;;2.50;2.50;;;;;31.36;16.09;100618.97;5099128;27;45646;-76
2022/04/20 13:40:02;;;;;;;;;4.00;3.00;;;;;31.56;15.90;100619.84;5099920;27;45652;-76
2022/04/20 13:42:28;;;;;;;;;3.00;2.00;;;;;31.38;15.97;100626.00;5099365;27;45639;-75
2022/04/20 13:44:53;;;;;;;;;2.50;2.00;;;;;31.25;16.24;100625.94;5080052;27;45358;-76
2022/04/20 13:47:19;;;;;;;;;2.25;2.25;;;;;31.27;15.96;100629.38;5099928;27;45324;-76
2022/04/20 13:49:44;;;;;;;;;3.75;3.00;;;;;31.30;15.34;100620.66;5099261;27;45272;-77
2022/04/20 13:52:09;;;;;;;;;1.50;1.00;;;;;31.07;15.93;100620.13;5098146;27;45417;-76
2022/04/20 13:54:35;;;;;;;;;1.50;1.50;;;;;30.68;16.30;100620.75;5094068;27;45399;-76
2022/04/20 13:57:00;;;;;;;;;1.25;1.25;;;;;30.20;16.99;100617.00;5118959;27;45348;-76
2022/04/20 13:59:25;;;;;;;;;3.00;1.75;;;;;29.69;17.12;100617.13;5118864;27;45303;-75
2022/04/20 14:01:51;;;;;;;;;3.50;2.50;;;;;29.27;18.11;100626.19;5117997;27;45417;-76
2022/04/20 14:04:17;;;;;;;;;3.75;3.00;;;;;28.86;18.15;100629.50;5118345;27;45141;-76
2022/04/20 14:06:43;;;;;;;;;1.00;1.00;;;;;28.52;19.00;100634.72;5119276;27;45366;-76
2022/04/20 14:09:08;;;;;;;;;2.25;2.25;;;;;28.12;19.13;100639.59;5117496;27;45361;-75
2022/04/20 14:11:33;;;;;;;;;2.50;2.00;;;;;27.62;19.38;100614.53;5117758;27;46085;-77
2022/04/20 14:14:01;;;;;;;;;2.00;1.50;;;;;27.27;20.00;100624.19;5117494;27;45256;-74
2022/04/20 14:16:27;;;;;;;;;1.75;1.75;;;;;26.89;20.36;100620.38;5118141;27;45387;-76
2022/04/20 14:18:53;;;;;;;;;2.25;1.50;;;;;26.61;20.49;100620.88;5118592;27;45228;-76
2022/04/20 14:21:20;;;;;;;;;2.50;0.00;;;;;26.29;20.55;100619.03;5117293;27;45448;-74
2022/04/20 14:23:46;;;;;;;;;1.75;1.75;;;;;26.06;21.06;100620.75;5117342;27;45400;-75
2022/04/20 14:34:44;;;;;;;;;0.50;0.50;;;;;26.47;20.45;100617.97;5090293;27;45522;-75
2022/04/20 14:37:10;;;;;;;;;2.25;2.25;;;;;26.89;19.91;100606.63;5117843;27;45285;-75
2022/04/20 14:39:36;;;;;;;;;3.00;3.00;;;;;27.48;19.17;100616.13;5117409;27;45781;-76
2022/04/20 14:42:04;;;;;;;;;1.75;1.75;;;;;27.97;19.08;100611.13;5117505;27;46215;-76
2022/04/20 14:44:34;;;;;;;;;1.50;1.50;;;;;28.29;18.75;100601.72;5117766;27;45324;-77
2022/04/20 14:47:00;;;;;;;;;2.75;2.00;;;;;28.44;18.38;100596.19;5117824;27;45292;-76
2022/04/20 14:49:26;;;;;;;;;1.50;1.50;;;;;28.71;18.68;100583.63;5117725;27;45388;-75
2022/04/20 14:51:52;;;;;;;;;3.00;2.00;;;;;28.94;17.93;100595.44;5100287;27;48729;-76
2022/04/20 14:54:18;;;;;;;;;1.50;1.50;;;;;29.17;18.14;100595.31;5112302;27;45423;-76
2022/04/20 14:56:44;;;;;;;;;2.25;2.25;;;;;29.51;18.04;100614.00;5078974;27;45352;-76
2022/04/20 14:59:09;;;;;;;;;4.25;3.00;;;;;29.71;17.42;100595.69;5095606;27;45324;-76
2022/04/20 15:01:35;;;;;;;;;2.75;1.75;;;;;29.95;17.35;100592.53;5095721;27;45166;-75
2022/04/20 15:04:03;;;;;;;;;2.50;1.75;;;;;30.23;17.27;100597.22;5096041;27;45336;-76
2022/04/20 15:06:29;;;;;;;;;2.25;2.00;;;;;30.21;16.50;100594.66;5096787;27;45360;-76
2022/04/20 15:08:55;;;;;;;;;1.75;1.75;;;;;29.84;17.38;100592.19;5097436;27;45514;-76
2022/04/20 15:11:20;;;;;;;;;4.00;2.50;;;;;29.58;17.29;100584.53;5096908;27;45298;-76
2022/04/20 15:13:48;;;;;;;;;1.00;1.00;;;;;29.47;18.42;100591.41;5083758;27;45363;-76
2022/04/20 15:16:13;;;;;;;;;3.75;2.75;;;;;29.43;17.66;100586.50;5117638;27;45318;-76
2022/04/20 15:18:39;;;;;;;;;9.25;9.00;;;;;29.42;17.96;100601.34;5117671;27;45645;-75
2022/04/20 15:21:05;;;;;;;;;7.75;5.25;;;;;29.25;17.65;100592.44;5117736;27;45316;-76
2022/04/20 15:23:31;;;;;;;;;4.25;2.50;;;;;28.99;17.86;100595.72;5118154;27;45296;-75
2022/04/20 15:25:56;;;;;;;;;3.50;3.50;;;;;28.81;18.71;100603.56;5118907;27;45368;-75
2022/04/20 15:28:21;;;;;;;;;2.75;1.75;;;;;28.53;17.23;100579.38;5098262;27;45629;-76
2022/04/20 15:30:47;;;;;;;;;3.50;1.75;;;;;28.55;17.37;100593.84;5116447;27;45665;-75
2022/04/20 15:33:14;;;;;;;;;2.00;2.00;;;;;28.45;18.30;100590.50;5096870;27;45343;-76
2022/04/20 15:35:40;;;;;;;;;2.00;2.00;;;;;28.41;17.01;100580.88;5096531;27;45305;-75
2022/04/20 15:38:05;;;;;;;;;1.75;1.75;;;;;28.38;17.37;100589.56;5080731;27;45323;-76
2022/04/20 15:40:32;;;;;;;;;1.50;1.50;;;;;28.40;16.88;100590.22;5100505;27;45311;-76
2022/04/20 15:43:03;;;;;;;;;0.00;0.00;;;;;28.46;16.82;100580.31;5098991;27;45322;-75
2022/04/20 15:45:29;;;;;;;;;1.50;1.50;;;;;28.51;17.14;100581.47;5100487;27;45469;-75
2022/04/20 15:47:54;;;;;;;;;2.25;1.00;;;;;28.35;16.77;100572.50;5106594;27;45518;-77
2022/04/20 15:50:20;;;;;;;;;1.75;1.75;;;;;28.51;16.11;100584.22;5120588;27;46009;-76
2022/04/20 15:52:45;;;;;;;;;1.75;1.75;;;;;28.61;16.37;100557.19;5120260;27;45471;-77
2022/04/20 16:00:43;;;;;;;;;1.75;0.50;;;;;28.77;15.57;100567.19;5119844;27;45337;-78
2022/04/20 16:03:09;;;;;;;;;1.75;1.75;;;;;28.84;15.94;100589.34;5120131;27;45401;-75
2022/04/20 16:05:34;;;;;;;;;2.00;2.00;;;;;28.83;15.77;100576.63;5119833;27;45484;-76
2022/04/20 16:08:00;;;;;;;;;2.25;1.00;;;;;28.90;15.52;100585.84;5119420;27;45360;-75
2022/04/20 16:10:25;;;;;;;;;1.75;1.75;;;;;28.78;15.50;100568.06;5119361;27;45968;-75
2022/04/20 16:12:52;;;;;;;;;2.00;2.00;;;;;28.72;15.98;100568.81;5119317;27;45283;-76
2022/04/20 16:15:18;;;;;;;;;2.50;1.00;;;;;28.64;15.69;100571.66;5119992;27;45531;-74
2022/04/20 16:17:43;;;;;;;;;3.00;1.75;;;;;28.67;16.05;100579.56;5118928;27;45343;-75
2022/04/20 16:20:10;;;;;;;;;2.00;2.00;;;;;28.57;16.45;100571.59;5120080;27;47072;-76
2022/04/20 16:22:37;;;;;;;;;2.00;2.00;;;;;28.38;15.88;100578.53;5119152;27;45326;-77
2022/04/20 16:25:06;;;;;;;;;4.00;2.00;;;;;28.21;15.51;100576.97;5118972;27;45188;-75
2022/04/20 16:27:32;;;;;;;;;2.00;2.00;;;;;27.97;15.49;100569.78;5118071;27;45499;-76
2022/04/20 16:29:57;;;;;;;;;2.00;2.00;;;;;27.80;14.85;100560.84;5118752;27;46309;-75
2022/04/20 16:32:23;;;;;;;;;3.75;3.75;;;;;27.78;15.38;100571.16;5087247;27;45414;-76
2022/04/20 16:34:51;;;;;;;;;2.25;2.25;;;;;27.46;15.75;100566.75;5119015;27;45260;-76
2022/04/20 16:37:17;;;;;;;;;2.75;2.75;;;;;27.11;16.25;100561.84;5119255;27;45472;-75
2022/04/20 16:39:42;;;;;;;;;1.75;1.75;;;;;26.79;16.51;100573.88;5119007;27;45372;-75
2022/04/20 16:42:07;;;;;;;;;5.75;4.75;;;;;26.58;17.06;100557.09;5118613;27;45452;-76
2022/04/20 16:44:33;;;;;;;;;2.00;2.00;;;;;26.37;17.66;100558.53;5118771;27;45427;-75
2022/04/20 16:46:59;;;;;;;;;4.00;2.75;;;;;26.28;17.34;100556.03;5118603;27;45312;-77